createdAt,value
2023-03-02T00:00:40.524Z,52.05
2023-03-02T00:05:35.350Z,52.52
2023-03-02T00:10:29.433Z,52.47
2023-03-02T00:15:23.072Z,52.73
2023-03-02T00:20:16.967Z,52.70
2023-03-02T00:25:12.980Z,52.80
2023-03-02T00:30:06.932Z,52.61
2023-03-02T00:34:59.758Z,52.72
2023-03-02T00:39:54.315Z,53.05
2023-03-02T00:44:46.469Z,52.73
2023-03-02T00:49:39.860Z,53.10
2023-03-02T00:54:33.103Z,52.54
2023-03-02T00:59:30.557Z,52.79
2023-03-02T01:04:48.759Z,52.87
2023-03-02T01:09:51.544Z,53.08
2023-03-02T01:14:47.906Z,53.07
2023-03-02T01:19:41.835Z,53.14
2023-03-02T01:24:35.274Z,53.00
2023-03-02T01:29:28.599Z,53.07
2023-03-02T01:34:21.412Z,53.00
2023-03-02T01:39:17.759Z,53.03
2023-03-02T01:44:35.964Z,53.21
2023-03-02T01:49:29.183Z,52.95
2023-03-02T01:54:25.326Z,53.36
2023-03-02T01:59:24.477Z,53.10
2023-03-02T02:04:23.252Z,53.46
2023-03-02T02:09:20.744Z,53.41
2023-03-02T02:14:14.458Z,53.52
2023-03-02T02:19:18.728Z,53.50
2023-03-02T02:24:26.281Z,53.08
2023-03-02T02:29:27.718Z,53.33
2023-03-02T02:34:24.959Z,52.78
2023-03-02T02:39:23.014Z,53.19
2023-03-02T02:44:18.282Z,53.10
2023-03-02T02:49:39.324Z,52.91
2023-03-02T02:54:33.895Z,52.86
2023-03-02T02:59:32.740Z,52.78
2023-03-02T03:04:28.971Z,52.85
2023-03-02T03:09:22.593Z,52.87
2023-03-02T03:14:20.588Z,52.64
2023-03-02T03:19:32.597Z,52.51
2023-03-02T03:24:28.202Z,52.46
2023-03-02T03:29:25.006Z,52.53
2023-03-02T03:34:20.205Z,52.40
2023-03-02T03:39:16.884Z,52.69
2023-03-02T03:44:09.767Z,52.50
2023-03-02T03:49:05.867Z,52.70
2023-03-02T03:54:02.253Z,52.64
2023-03-02T03:59:07.043Z,52.79
2023-03-02T04:04:07.721Z,52.85
2023-03-02T04:09:07.994Z,52.66
2023-03-02T04:14:01.635Z,52.56
2023-03-02T04:18:55.591Z,52.94
2023-03-02T04:23:48.878Z,52.64
2023-03-02T04:28:41.587Z,52.86
2023-03-02T04:33:34.688Z,52.89
2023-03-02T04:38:29.964Z,52.85
2023-03-02T04:43:23.537Z,52.75
2023-03-02T04:48:17.157Z,52.71
2023-03-02T04:53:10.539Z,52.57
2023-03-02T04:58:04.537Z,52.59
2023-03-02T05:02:58.856Z,52.79
2023-03-02T05:07:52.237Z,52.54
2023-03-02T05:13:05.945Z,52.58
2023-03-02T05:17:59.577Z,52.44
2023-03-02T05:22:53.078Z,52.57
2023-03-02T05:27:46.918Z,52.54
2023-03-02T05:32:40.338Z,52.61
2023-03-02T05:37:32.818Z,52.47
2023-03-02T05:42:26.872Z,52.34
2023-03-02T05:47:21.041Z,52.32
2023-03-02T05:52:13.767Z,52.42
2023-03-02T05:57:08.406Z,52.27
2023-03-02T06:02:02.655Z,52.33
2023-03-02T06:06:55.759Z,51.16
2023-03-02T06:11:49.916Z,50.26
2023-03-02T06:16:42.772Z,49.24
2023-03-02T06:21:36.973Z,48.27
2023-03-02T06:26:31.375Z,47.71
2023-03-02T06:31:25.519Z,46.58
2023-03-02T06:36:18.208Z,47.40
2023-03-02T06:41:12.169Z,47.63
2023-03-02T06:46:05.542Z,47.29
2023-03-02T06:50:58.870Z,47.77
2023-03-02T06:55:52.383Z,47.11
2023-03-02T07:00:45.596Z,47.01
2023-03-02T07:05:39.201Z,46.39
2023-03-02T07:10:31.861Z,45.65
2023-03-02T07:15:25.431Z,45.93
2023-03-02T07:20:19.018Z,45.29
2023-03-02T07:25:15.000Z,45.25
2023-03-02T07:30:08.425Z,45.11
2023-03-02T07:35:01.658Z,45.21
2023-03-02T07:39:54.393Z,44.85
2023-03-02T07:44:47.799Z,44.88
2023-03-02T07:49:40.699Z,44.88
2023-03-02T07:54:34.174Z,45.86
2023-03-02T07:59:28.728Z,46.26
2023-03-02T08:04:22.290Z,46.34
2023-03-02T08:09:16.825Z,46.83
2023-03-02T08:14:10.058Z,46.65
2023-03-02T08:19:02.718Z,46.91
2023-03-02T08:23:56.692Z,47.03
2023-03-02T08:28:49.768Z,47.26
2023-03-02T08:33:42.694Z,47.36
2023-03-02T08:38:36.343Z,47.76
2023-03-02T08:43:29.042Z,47.65
2023-03-02T08:48:22.761Z,48.11
2023-03-02T08:53:15.868Z,48.08
2023-03-02T08:58:08.768Z,47.77
2023-03-02T09:03:03.020Z,48.21
2023-03-02T09:07:56.263Z,48.31
2023-03-02T09:12:48.698Z,47.91
2023-03-02T09:17:40.998Z,47.72
2023-03-02T09:22:35.984Z,47.69
2023-03-02T09:27:29.883Z,47.77
2023-03-02T09:32:22.926Z,48.54
2023-03-02T09:37:16.273Z,47.30
2023-03-02T09:42:41.711Z,47.59
2023-03-02T09:47:58.921Z,47.23
2023-03-02T09:53:05.861Z,47.46
2023-03-02T09:58:02.918Z,47.66
2023-03-02T10:03:17.795Z,47.68
2023-03-02T10:08:18.826Z,47.68
2023-03-02T10:13:25.805Z,48.01
2023-03-02T10:18:33.668Z,47.80
2023-03-02T10:24:01.122Z,48.13
2023-03-02T10:29:33.159Z,47.95
2023-03-02T10:34:30.079Z,48.16
2023-03-02T10:39:22.905Z,48.29
2023-03-02T10:44:32.072Z,48.54
2023-03-02T10:49:29.021Z,48.97
2023-03-02T10:54:22.138Z,48.57
2023-03-02T10:59:33.034Z,48.31
2023-03-02T11:04:31.469Z,48.19
2023-03-02T11:14:18.074Z,48.34
2023-03-02T11:19:36.199Z,48.87
2023-03-02T11:24:43.239Z,49.12
2023-03-02T11:29:46.044Z,49.00
2023-03-02T11:35:03.693Z,49.26
2023-03-02T11:40:19.464Z,49.69
2023-03-02T11:45:17.654Z,49.75
2023-03-02T11:50:15.203Z,49.76
2023-03-02T11:55:21.013Z,49.74
2023-03-02T12:00:42.333Z,50.31
2023-03-02T12:05:37.054Z,50.74
2023-03-02T12:10:39.462Z,52.89
2023-03-02T12:15:39.774Z,54.95
2023-03-02T12:20:36.621Z,55.24
2023-03-02T12:25:39.669Z,54.60
2023-03-02T12:30:32.857Z,54.09
2023-03-02T12:35:27.003Z,54.00
2023-03-02T12:40:20.030Z,53.80
2023-03-02T12:45:42.772Z,54.19
2023-03-02T12:50:38.874Z,53.92
2023-03-02T12:55:31.651Z,53.64
2023-03-02T13:00:49.951Z,53.62
2023-03-02T13:05:43.241Z,53.04
2023-03-02T13:10:58.272Z,52.91
2023-03-02T13:15:59.472Z,52.40
2023-03-02T13:20:53.644Z,52.34
2023-03-02T13:25:54.409Z,52.16
2023-03-02T13:30:56.434Z,51.92
2023-03-02T13:35:49.869Z,51.62
2023-03-02T13:40:49.062Z,51.61
2023-03-02T13:45:53.964Z,51.23
2023-03-02T13:51:20.023Z,51.54
2023-03-02T13:56:16.766Z,51.81
2023-03-02T14:01:09.461Z,52.11
2023-03-02T14:06:02.918Z,52.17
2023-03-02T14:10:58.129Z,52.28
2023-03-02T14:15:53.504Z,52.86
2023-03-02T14:20:46.697Z,52.71
2023-03-02T14:25:39.641Z,52.92
2023-03-02T14:30:33.144Z,53.00
2023-03-02T14:35:26.479Z,52.71
2023-03-02T14:40:29.803Z,53.09
2023-03-02T14:45:23.397Z,52.72
2023-03-02T14:50:17.646Z,52.85
2023-03-02T14:55:26.892Z,52.92
2023-03-02T15:00:21.990Z,53.04
2023-03-02T15:05:15.585Z,52.91
2023-03-02T15:10:13.273Z,52.79
2023-03-02T15:15:07.518Z,52.53
2023-03-02T15:20:00.932Z,52.15
2023-03-02T15:24:53.634Z,52.15
2023-03-02T15:29:48.837Z,52.28
2023-03-02T15:34:42.268Z,52.22
2023-03-02T15:39:34.641Z,52.06
2023-03-02T15:44:30.149Z,52.07
2023-03-02T15:49:25.575Z,51.75
2023-03-02T15:54:20.231Z,51.58
2023-03-02T15:59:12.690Z,51.45
2023-03-02T16:04:06.534Z,51.74
2023-03-02T16:09:00.395Z,51.56
2023-03-02T16:13:53.411Z,51.90
2023-03-02T16:18:52.655Z,51.80
2023-03-02T16:23:46.095Z,51.76
2023-03-02T16:28:38.962Z,51.96
2023-03-02T16:33:31.853Z,51.81
2023-03-02T16:38:25.207Z,51.83
2023-03-02T16:43:19.046Z,51.73
2023-03-02T16:48:13.096Z,51.83
2023-03-02T16:53:06.384Z,51.64
2023-03-02T16:57:59.830Z,51.76
2023-03-02T17:02:52.619Z,51.64
2023-03-02T17:07:46.152Z,51.84
2023-03-02T17:12:44.728Z,51.76
2023-03-02T17:17:45.911Z,51.46
2023-03-02T17:22:41.113Z,51.69
2023-03-02T17:27:34.734Z,51.54
2023-03-02T17:32:27.026Z,51.21
2023-03-02T17:37:21.176Z,51.24
2023-03-02T17:42:14.955Z,51.10
2023-03-02T17:47:08.498Z,51.39
2023-03-02T17:52:01.045Z,51.26
2023-03-02T17:56:53.753Z,51.19
2023-03-02T18:01:47.109Z,51.39
2023-03-02T18:06:40.119Z,51.30
2023-03-02T18:11:34.400Z,51.50
2023-03-02T18:16:29.555Z,51.84
2023-03-02T18:21:22.926Z,52.62
2023-03-02T18:26:18.113Z,53.10
2023-03-02T18:31:15.451Z,53.00
2023-03-02T18:36:09.630Z,51.02
2023-03-02T18:41:04.574Z,49.93
2023-03-02T18:45:58.066Z,50.21
2023-03-02T18:50:51.911Z,49.08
2023-03-02T18:55:44.870Z,46.66
2023-03-02T19:00:37.693Z,49.22
2023-03-02T19:05:31.190Z,49.83
2023-03-02T19:10:26.746Z,49.72
2023-03-02T19:15:21.096Z,49.83
2023-03-02T19:20:17.437Z,49.79
2023-03-02T19:25:13.265Z,49.88
2023-03-02T19:30:08.429Z,49.95
2023-03-02T19:35:02.768Z,49.97
2023-03-02T19:39:56.076Z,50.22
2023-03-02T19:44:48.914Z,50.55
2023-03-02T19:49:42.422Z,50.51
2023-03-02T19:54:34.849Z,48.51
2023-03-02T19:59:31.208Z,50.41
2023-03-02T20:04:24.460Z,50.55
2023-03-02T20:09:19.834Z,50.49
2023-03-02T20:14:16.813Z,50.40
2023-03-02T20:19:17.425Z,50.60
2023-03-02T20:24:10.374Z,50.53
2023-03-02T20:29:05.836Z,50.79
2023-03-02T20:33:59.526Z,51.41
2023-03-02T20:39:06.902Z,52.90
2023-03-02T20:43:59.769Z,53.21
2023-03-02T20:48:53.862Z,53.86
2023-03-02T20:53:47.499Z,53.31
2023-03-02T20:58:42.390Z,53.86
2023-03-02T21:03:35.861Z,53.75
2023-03-02T21:08:28.682Z,54.04
2023-03-02T21:13:23.406Z,53.78
2023-03-02T21:18:17.397Z,53.95
2023-03-02T21:23:11.748Z,53.97
2023-03-02T21:28:05.703Z,54.45
2023-03-02T21:32:58.742Z,54.43
2023-03-02T21:37:57.246Z,54.14
2023-03-02T21:42:49.969Z,54.54
2023-03-02T21:47:44.372Z,53.94
2023-03-02T21:52:40.679Z,54.11
2023-03-02T21:57:34.058Z,53.92
2023-03-02T22:02:27.014Z,53.92
2023-03-02T22:07:23.967Z,54.10
2023-03-02T22:12:17.712Z,54.05
2023-03-02T22:17:20.836Z,54.16
2023-03-02T22:22:19.593Z,54.37
2023-03-02T22:27:30.222Z,54.47
2023-03-02T22:32:29.438Z,54.46
2023-03-02T22:37:44.281Z,54.24
2023-03-02T22:42:38.069Z,54.65
2023-03-02T22:47:32.961Z,54.65
2023-03-02T22:52:34.120Z,54.68
2023-03-02T22:57:32.834Z,54.56
2023-03-02T23:02:27.722Z,54.16
2023-03-02T23:07:22.066Z,54.23
2023-03-02T23:12:28.424Z,54.13
2023-03-02T23:17:26.398Z,54.11
2023-03-02T23:22:19.316Z,53.87
2023-03-02T23:27:13.012Z,54.01
2023-03-02T23:32:06.195Z,53.89
2023-03-02T23:36:59.816Z,53.84
2023-03-02T23:41:53.384Z,53.83
2023-03-02T23:46:47.984Z,53.61
2023-03-02T23:51:41.798Z,53.59
2023-03-02T23:56:35.601Z,53.53
